createdAt,value
2023-03-30T00:00:46.880Z,13.02
2023-03-30T00:03:33.375Z,9.13
2023-03-30T00:06:22.794Z,8.85
2023-03-30T00:09:10.786Z,4.78
2023-03-30T00:11:56.132Z,6.40
2023-03-30T00:14:42.740Z,6.93
2023-03-30T00:17:28.796Z,8.18
2023-03-30T00:20:15.393Z,9.18
2023-03-30T00:23:00.992Z,6.13
2023-03-30T00:25:48.427Z,5.15
2023-03-30T00:28:34.738Z,5.97
2023-03-30T00:31:20.613Z,6.75
2023-03-30T00:34:06.175Z,8.98
2023-03-30T00:36:53.367Z,7.95
2023-03-30T00:39:39.568Z,5.90
2023-03-30T00:42:26.488Z,5.70
2023-03-30T00:45:18.948Z,5.97
2023-03-30T00:48:07.686Z,6.43
2023-03-30T00:50:56.951Z,5.78
2023-03-30T00:53:45.761Z,4.75
2023-03-30T00:56:31.764Z,4.20
2023-03-30T00:59:19.136Z,5.80
2023-03-30T01:02:06.204Z,6.13
2023-03-30T01:07:41.350Z,6.63
2023-03-30T01:10:26.954Z,5.05
2023-03-30T01:13:14.163Z,6.10
2023-03-30T01:16:11.226Z,2.97
2023-03-30T01:19:06.301Z,6.72
2023-03-30T01:22:28.482Z,6.88
2023-03-30T01:25:47.814Z,5.90
2023-03-30T01:28:43.280Z,7.47
2023-03-30T01:32:10.895Z,5.05
2023-03-30T01:35:19.107Z,5.90
2023-03-30T01:38:33.986Z,4.65
2023-03-30T01:41:31.216Z,4.18
2023-03-30T01:44:23.422Z,3.72
2023-03-30T01:47:16.384Z,3.20
2023-03-30T01:50:06.088Z,5.07
2023-03-30T01:52:56.915Z,6.70
2023-03-30T01:55:45.890Z,6.80
2023-03-30T01:58:37.595Z,3.40
2023-03-30T02:01:26.036Z,4.05
2023-03-30T02:04:12.833Z,4.43
2023-03-30T02:07:01.423Z,3.70
2023-03-30T02:09:49.600Z,4.88
2023-03-30T02:12:36.362Z,6.18
2023-03-30T02:15:26.300Z,3.10
2023-03-30T02:18:11.965Z,7.90
2023-03-30T02:20:58.915Z,2.90
2023-03-30T02:23:46.431Z,6.43
2023-03-30T02:26:32.497Z,5.43
2023-03-30T02:29:19.230Z,4.95
2023-03-30T02:32:06.703Z,5.93
2023-03-30T02:35:08.986Z,6.65
2023-03-30T02:38:13.451Z,4.07
2023-03-30T02:41:09.005Z,2.67
2023-03-30T02:44:05.754Z,3.80
2023-03-30T02:47:04.616Z,5.38
2023-03-30T02:50:00.020Z,6.70
2023-03-30T02:52:54.759Z,3.17
2023-03-30T02:55:51.087Z,4.30
2023-03-30T02:58:47.584Z,4.13
2023-03-30T03:01:42.834Z,6.70
2023-03-30T03:04:35.746Z,3.53
2023-03-30T03:07:44.975Z,6.85
2023-03-30T03:10:30.918Z,5.38
2023-03-30T03:13:18.987Z,5.95
2023-03-30T03:16:07.975Z,1.60
2023-03-30T03:18:54.255Z,5.28
2023-03-30T03:21:40.489Z,2.53
2023-03-30T03:24:27.777Z,7.05
2023-03-30T03:27:46.137Z,3.40
2023-03-30T03:30:39.946Z,3.63
2023-03-30T03:33:34.438Z,4.40
2023-03-30T03:36:25.745Z,1.90
2023-03-30T03:39:12.639Z,3.33
2023-03-30T03:42:00.480Z,2.58
2023-03-30T03:44:47.009Z,4.80
2023-03-30T03:47:33.873Z,5.60
2023-03-30T03:50:21.045Z,5.35
2023-03-30T03:53:06.870Z,3.03
2023-03-30T03:55:52.714Z,3.72
2023-03-30T03:58:40.346Z,3.75
2023-03-30T04:01:26.053Z,4.53
2023-03-30T04:04:12.044Z,4.93
2023-03-30T04:06:58.533Z,4.22
2023-03-30T04:09:43.972Z,2.85
2023-03-30T04:13:02.292Z,3.90
2023-03-30T04:16:09.066Z,2.75
2023-03-30T04:19:13.814Z,4.05
2023-03-30T04:22:26.271Z,2.75
2023-03-30T04:25:22.733Z,4.05
2023-03-30T04:28:29.849Z,2.92
2023-03-30T04:31:35.935Z,3.03
2023-03-30T04:34:42.725Z,1.85
2023-03-30T04:37:42.185Z,4.20
2023-03-30T04:40:53.236Z,3.10
2023-03-30T04:43:52.262Z,3.83
2023-03-30T04:46:45.202Z,4.28
2023-03-30T04:49:51.405Z,5.47
2023-03-30T04:53:03.401Z,4.18
2023-03-30T04:56:06.712Z,5.95
2023-03-30T04:59:12.597Z,9.45
2023-03-30T05:02:28.883Z,5.60
2023-03-30T05:05:47.052Z,4.10
2023-03-30T05:08:51.618Z,7.45
2023-03-30T05:11:50.848Z,6.07
2023-03-30T05:14:50.318Z,4.35
2023-03-30T05:18:06.707Z,6.05
2023-03-30T05:20:58.881Z,6.30
2023-03-30T05:23:44.547Z,10.57
2023-03-30T05:26:48.988Z,6.03
2023-03-30T05:30:08.593Z,9.60
2023-03-30T05:33:27.870Z,8.48
2023-03-30T05:36:32.668Z,6.65
2023-03-30T05:39:26.658Z,4.68
2023-03-30T05:42:32.458Z,6.03
2023-03-30T05:45:30.436Z,10.50
2023-03-30T05:48:31.238Z,8.57
2023-03-30T05:51:39.808Z,5.90
2023-03-30T05:54:34.977Z,10.25
2023-03-30T05:57:39.954Z,11.95
2023-03-30T06:00:33.694Z,9.75
2023-03-30T06:03:27.832Z,8.82
2023-03-30T06:06:15.437Z,10.73
2023-03-30T06:09:04.974Z,9.32
2023-03-30T06:11:52.564Z,11.90
2023-03-30T06:14:41.796Z,11.90
2023-03-30T06:17:48.732Z,8.77
2023-03-30T06:20:34.522Z,13.57
2023-03-30T06:23:23.252Z,7.80
2023-03-30T06:26:11.949Z,8.23
2023-03-30T06:28:58.033Z,10.45
2023-03-30T06:31:48.155Z,10.88
2023-03-30T06:35:07.472Z,17.27
2023-03-30T06:37:53.657Z,10.65
2023-03-30T06:40:40.991Z,11.60
2023-03-30T06:43:27.471Z,9.05
2023-03-30T06:46:32.072Z,12.35
2023-03-30T06:49:17.583Z,8.75
2023-03-30T06:52:05.480Z,10.20
2023-03-30T06:54:54.276Z,15.35
2023-03-30T06:57:41.981Z,12.68
2023-03-30T07:00:31.134Z,9.15
2023-03-30T07:03:51.958Z,14.50
2023-03-30T07:06:44.215Z,8.02
2023-03-30T07:09:30.700Z,14.00
2023-03-30T07:12:19.843Z,10.65
2023-03-30T07:15:09.752Z,14.55
2023-03-30T07:17:55.828Z,7.68
2023-03-30T07:20:41.731Z,10.55
2023-03-30T07:23:35.842Z,12.30
2023-03-30T07:26:21.969Z,9.30
2023-03-30T07:29:15.478Z,9.98
2023-03-30T07:32:05.616Z,8.57
2023-03-30T07:34:51.247Z,11.40
2023-03-30T07:37:40.024Z,14.80
2023-03-30T07:40:26.372Z,7.43
2023-03-30T07:43:12.417Z,11.10
2023-03-30T07:45:59.375Z,12.35
2023-03-30T07:48:55.104Z,11.27
2023-03-30T07:51:41.862Z,10.43
2023-03-30T07:54:34.237Z,11.68
2023-03-30T07:57:32.092Z,11.57
2023-03-30T08:00:18.874Z,12.52
2023-03-30T08:03:25.262Z,18.98
2023-03-30T08:06:12.486Z,15.52
2023-03-30T08:09:01.357Z,15.85
2023-03-30T08:11:47.223Z,10.85
2023-03-30T08:14:32.913Z,17.85
2023-03-30T08:17:19.413Z,17.98
2023-03-30T08:20:10.830Z,11.40
2023-03-30T08:22:57.887Z,15.57
2023-03-30T08:25:45.338Z,17.25
2023-03-30T08:28:32.652Z,12.32
2023-03-30T08:31:18.560Z,10.93
2023-03-30T08:34:04.582Z,12.00
2023-03-30T08:36:50.230Z,18.08
2023-03-30T08:39:37.545Z,15.23
2023-03-30T08:42:37.102Z,15.75
2023-03-30T08:45:23.423Z,15.02
2023-03-30T08:48:16.932Z,16.30
2023-03-30T08:51:09.061Z,11.07
2023-03-30T08:53:57.070Z,8.38
2023-03-30T08:56:53.564Z,11.18
2023-03-30T08:59:45.716Z,10.32
2023-03-30T09:02:35.595Z,9.30
2023-03-30T09:05:30.330Z,13.57
2023-03-30T09:08:20.398Z,10.77
2023-03-30T09:11:12.153Z,13.30
2023-03-30T09:16:52.847Z,15.18
2023-03-30T09:19:51.236Z,15.00
2023-03-30T09:22:41.770Z,19.52
2023-03-30T09:25:34.549Z,13.60
2023-03-30T09:28:25.397Z,14.10
2023-03-30T09:31:20.538Z,18.42
2023-03-30T09:34:18.922Z,12.90
2023-03-30T09:37:09.025Z,16.13
2023-03-30T09:39:54.540Z,15.10
2023-03-30T09:42:48.098Z,13.60
2023-03-30T09:45:34.621Z,16.77
2023-03-30T09:48:21.725Z,14.10
2023-03-30T09:51:22.990Z,15.77
2023-03-30T09:56:59.993Z,17.98
2023-03-30T09:59:46.177Z,23.65
2023-03-30T10:02:34.008Z,18.77
2023-03-30T10:05:21.872Z,16.88
2023-03-30T10:08:23.665Z,13.45
2023-03-30T10:11:11.715Z,15.68
2023-03-30T10:13:58.230Z,17.88
2023-03-30T10:16:44.690Z,15.60
2023-03-30T10:19:33.932Z,21.02
2023-03-30T10:22:22.941Z,22.02
2023-03-30T10:25:17.885Z,24.27
2023-03-30T10:28:17.458Z,15.02
2023-03-30T10:31:07.316Z,16.67
2023-03-30T10:33:56.666Z,12.43
2023-03-30T10:36:42.729Z,20.00
2023-03-30T10:39:32.360Z,20.48
2023-03-30T10:42:21.030Z,15.98
2023-03-30T10:45:07.857Z,20.38
2023-03-30T10:48:08.421Z,15.60
2023-03-30T10:51:01.263Z,23.83
2023-03-30T10:53:54.143Z,13.15
2023-03-30T10:56:46.927Z,17.73
2023-03-30T10:59:51.429Z,15.82
2023-03-30T11:02:49.674Z,17.10
2023-03-30T11:05:39.630Z,19.83
2023-03-30T11:08:30.477Z,18.50
2023-03-30T11:11:21.091Z,19.63
2023-03-30T11:14:15.567Z,15.80
2023-03-30T11:17:08.951Z,15.20
2023-03-30T11:19:56.965Z,14.07
2023-03-30T11:22:48.963Z,19.35
2023-03-30T11:25:41.524Z,18.42
2023-03-30T11:28:53.695Z,19.13
2023-03-30T11:31:48.722Z,11.13
2023-03-30T11:34:43.678Z,18.20
2023-03-30T11:37:35.538Z,18.80
2023-03-30T11:40:26.780Z,16.63
2023-03-30T11:43:13.411Z,12.57
2023-03-30T11:46:04.205Z,14.50
2023-03-30T11:49:23.022Z,12.40
2023-03-30T11:52:19.810Z,16.38
2023-03-30T11:55:26.991Z,14.82
2023-03-30T11:58:21.185Z,17.10
2023-03-30T12:01:28.483Z,14.85
2023-03-30T12:04:22.289Z,13.90
2023-03-30T12:07:18.076Z,14.55
2023-03-30T12:10:10.930Z,12.82
2023-03-30T12:12:57.668Z,17.58
2023-03-30T12:15:49.833Z,11.52
2023-03-30T12:18:41.720Z,14.02
2023-03-30T12:21:35.928Z,14.77
2023-03-30T12:24:25.997Z,19.50
2023-03-30T12:27:12.149Z,15.67
2023-03-30T12:30:12.935Z,17.27
2023-03-30T12:33:01.667Z,22.50
2023-03-30T12:35:59.170Z,20.45
2023-03-30T12:38:50.329Z,12.30
2023-03-30T12:41:42.168Z,15.20
2023-03-30T12:44:43.992Z,15.43
2023-03-30T12:47:58.035Z,20.40
2023-03-30T12:50:53.519Z,23.42
2023-03-30T12:53:56.799Z,17.52
2023-03-30T12:56:51.255Z,19.98
2023-03-30T13:00:11.678Z,18.60
2023-03-30T13:03:24.169Z,16.77
2023-03-30T13:06:21.073Z,16.88
2023-03-30T13:09:51.376Z,24.27
2023-03-30T13:12:40.348Z,20.50
2023-03-30T13:15:35.506Z,21.13
2023-03-30T13:18:33.300Z,16.88
2023-03-30T13:21:24.636Z,25.85
2023-03-30T13:24:28.468Z,23.55
2023-03-30T13:27:28.864Z,18.80
2023-03-30T13:30:15.526Z,15.15
2023-03-30T13:33:12.510Z,21.48
2023-03-30T13:36:06.320Z,20.33
2023-03-30T13:39:05.218Z,15.32
2023-03-30T13:42:01.428Z,17.70
2023-03-30T13:44:58.479Z,19.63
2023-03-30T13:47:57.581Z,20.40
2023-03-30T13:50:49.762Z,17.73
2023-03-30T13:53:41.693Z,17.77
2023-03-30T13:56:32.239Z,18.60
2023-03-30T13:59:20.270Z,14.63
2023-03-30T14:02:12.679Z,20.35
2023-03-30T14:05:14.279Z,15.38
2023-03-30T14:08:00.122Z,13.30
2023-03-30T14:10:47.548Z,14.40
2023-03-30T14:13:36.889Z,14.55
2023-03-30T14:16:24.524Z,21.67
2023-03-30T14:19:21.765Z,14.40
2023-03-30T14:22:15.751Z,13.82
2023-03-30T14:25:03.508Z,10.43
2023-03-30T14:27:49.647Z,14.77
2023-03-30T14:30:35.664Z,14.32
2023-03-30T14:33:22.302Z,13.57
2023-03-30T14:36:12.641Z,9.45
2023-03-30T14:38:59.108Z,15.90
2023-03-30T14:41:45.324Z,11.52
2023-03-30T14:44:31.133Z,12.27
2023-03-30T14:47:21.400Z,13.98
2023-03-30T14:50:09.185Z,9.57
2023-03-30T14:52:56.629Z,9.57
2023-03-30T14:55:43.641Z,10.57
2023-03-30T14:58:32.039Z,13.40
2023-03-30T15:01:24.488Z,14.50
2023-03-30T15:04:14.953Z,11.75
2023-03-30T15:07:01.105Z,11.17
2023-03-30T15:09:54.322Z,15.32
2023-03-30T15:24:43.635Z,6.43
2023-03-30T15:32:33.418Z,14.93
2023-03-30T15:36:12.027Z,8.02
2023-03-30T15:41:52.987Z,10.32
2023-03-30T15:44:25.254Z,12.50
2023-03-30T15:47:53.128Z,14.45
2023-03-30T15:55:08.232Z,6.88
2023-03-30T16:01:51.451Z,9.98
2023-03-30T16:04:37.453Z,12.48
2023-03-30T16:07:25.041Z,11.75
2023-03-30T16:10:19.482Z,9.43
2023-03-30T16:13:07.008Z,15.10
2023-03-30T16:15:55.603Z,10.77
2023-03-30T16:18:42.782Z,8.30
2023-03-30T16:21:28.490Z,13.77
2023-03-30T16:24:14.528Z,9.13
2023-03-30T16:27:00.752Z,13.02
2023-03-30T16:29:46.539Z,14.25
2023-03-30T16:32:35.814Z,12.02
2023-03-30T16:35:21.590Z,8.98
2023-03-30T16:38:07.811Z,8.38
2023-03-30T16:40:56.909Z,8.90
2023-03-30T16:43:42.784Z,15.18
2023-03-30T16:46:28.678Z,7.47
2023-03-30T16:49:17.742Z,14.82
2023-03-30T16:52:03.546Z,10.35
2023-03-30T16:54:49.522Z,12.43
2023-03-30T16:57:35.926Z,13.30
2023-03-30T17:00:25.288Z,13.35
2023-03-30T17:03:11.658Z,19.63
2023-03-30T17:05:58.947Z,11.05
2023-03-30T17:08:45.578Z,11.60
2023-03-30T17:11:31.627Z,13.30
2023-03-30T17:14:17.671Z,13.27
2023-03-30T17:17:03.803Z,12.23
2023-03-30T17:19:49.711Z,17.05
2023-03-30T17:22:37.270Z,10.38
2023-03-30T17:25:27.560Z,16.10
2023-03-30T17:28:19.901Z,16.50
2023-03-30T17:31:10.636Z,15.50
2023-03-30T17:34:16.678Z,17.55
2023-03-30T17:37:02.693Z,19.23
2023-03-30T17:39:52.974Z,15.00
2023-03-30T17:42:41.193Z,18.95
2023-03-30T17:45:29.293Z,17.38
2023-03-30T17:48:17.552Z,17.45
2023-03-30T17:51:04.669Z,15.10
2023-03-30T17:53:50.681Z,22.33
2023-03-30T17:56:37.487Z,20.33
2023-03-30T17:59:23.382Z,19.88
2023-03-30T18:02:09.187Z,21.88
2023-03-30T18:04:55.237Z,12.98
2023-03-30T18:07:40.936Z,23.58
2023-03-30T18:10:30.946Z,18.23
2023-03-30T18:13:19.393Z,21.45
2023-03-30T18:16:05.999Z,17.05
2023-03-30T18:18:51.564Z,18.83
2023-03-30T18:21:37.424Z,20.35
2023-03-30T18:24:23.213Z,19.15
2023-03-30T18:27:11.021Z,18.40
2023-03-30T18:29:58.504Z,16.40
2023-03-30T18:32:47.450Z,22.42
2023-03-30T18:35:35.665Z,22.30
2023-03-30T18:38:22.597Z,11.38
2023-03-30T18:41:11.520Z,14.40
2023-03-30T18:43:57.221Z,14.40
2023-03-30T18:46:46.436Z,9.82
2023-03-30T18:49:32.027Z,18.35
2023-03-30T18:52:18.190Z,16.42
2023-03-30T18:55:04.323Z,16.30
2023-03-30T18:57:50.631Z,11.40
2023-03-30T19:00:36.609Z,8.80
2023-03-30T19:03:25.463Z,11.80
2023-03-30T19:06:16.035Z,12.30
2023-03-30T19:09:02.117Z,14.05
2023-03-30T19:11:48.080Z,12.95
2023-03-30T19:34:02.179Z,13.02
2023-03-30T19:45:07.577Z,13.50
2023-03-30T20:07:53.983Z,11.75
2023-03-30T20:10:39.800Z,12.52
2023-03-30T20:16:26.151Z,11.35
2023-03-30T20:19:28.621Z,14.60
2023-03-30T20:25:00.798Z,12.70
2023-03-30T20:27:46.804Z,15.85
2023-03-30T20:30:37.252Z,17.95
2023-03-30T20:33:23.188Z,14.70
2023-03-30T20:36:09.650Z,9.27
2023-03-30T20:38:59.454Z,15.07
2023-03-30T20:41:45.471Z,11.45
2023-03-30T20:44:32.058Z,13.25
2023-03-30T20:47:23.209Z,14.13
2023-03-30T20:50:10.264Z,12.00
2023-03-30T20:52:55.970Z,21.05
2023-03-30T20:55:43.061Z,14.38
2023-03-30T20:58:29.321Z,12.98
2023-03-30T21:01:17.548Z,16.58
2023-03-30T21:04:05.227Z,14.75
2023-03-30T21:06:51.769Z,20.42
2023-03-30T21:12:22.867Z,17.75
2023-03-30T21:15:09.437Z,14.45
2023-03-30T21:17:55.378Z,14.30
2023-03-30T21:20:42.545Z,17.75
2023-03-30T21:23:29.106Z,16.23
2023-03-30T21:26:15.075Z,19.85
2023-03-30T21:29:01.486Z,19.13
2023-03-30T21:31:46.907Z,15.38
2023-03-30T21:34:32.322Z,16.80
2023-03-30T21:37:19.420Z,14.32
2023-03-30T21:40:08.797Z,13.10
2023-03-30T21:42:54.440Z,16.85
2023-03-30T21:45:43.086Z,15.23
2023-03-30T21:48:30.744Z,17.27
2023-03-30T21:51:18.307Z,13.52
2023-03-30T21:54:05.952Z,14.85
2023-03-30T22:24:32.417Z,16.95
2023-03-30T22:27:19.651Z,13.55
2023-03-30T22:30:07.143Z,14.32
2023-03-30T22:32:52.979Z,12.40
2023-03-30T22:35:39.186Z,13.50
2023-03-30T22:38:24.870Z,17.13
2023-03-30T22:41:10.446Z,10.65
2023-03-30T22:46:43.768Z,12.60
2023-03-30T22:55:01.114Z,15.00
2023-03-30T23:05:17.262Z,13.60
2023-03-30T23:08:04.362Z,11.30
